sensor_id;sensor_type;location;lat;lon;timestamp;temperature;humidity
27803;DHT22;15182;48.174;11.562;2023-01-15T00:00:44;13.40;74.80
27803;DHT22;15182;48.174;11.562;2023-01-15T00:03:16;13.40;74.80
27803;DHT22;15182;48.174;11.562;2023-01-15T00:05:48;13.30;74.80
27803;DHT22;15182;48.174;11.562;2023-01-15T00:08:19;13.40;75.20
27803;DHT22;15182;48.174;11.562;2023-01-15T00:10:50;13.30;75.20
27803;DHT22;15182;48.174;11.562;2023-01-15T00:13:25;13.30;75.10
27803;DHT22;15182;48.174;11.562;2023-01-15T00:16:01;13.30;75.20
27803;DHT22;15182;48.174;11.562;2023-01-15T00:18:35;13.30;75.20
27803;DHT22;15182;48.174;11.562;2023-01-15T00:21:09;13.20;75.20
27803;DHT22;15182;48.174;11.562;2023-01-15T00:23:41;13.20;75.20
27803;DHT22;15182;48.174;11.562;2023-01-15T00:26:32;13.20;75.20
27803;DHT22;15182;48.174;11.562;2023-01-15T00:29:22;13.20;75.00
27803;DHT22;15182;48.174;11.562;2023-01-15T00:31:56;13.20;75.10
27803;DHT22;15182;48.174;11.562;2023-01-15T00:34:33;13.20;75.00
27803;DHT22;15182;48.174;11.562;2023-01-15T00:37:05;13.20;75.00
27803;DHT22;15182;48.174;11.562;2023-01-15T00:39:36;13.20;75.20
27803;DHT22;15182;48.174;11.562;2023-01-15T00:42:07;13.20;75.30
27803;DHT22;15182;48.174;11.562;2023-01-15T00:44:39;13.20;75.50
27803;DHT22;15182;48.174;11.562;2023-01-15T00:47:12;13.10;75.50
27803;DHT22;15182;48.174;11.562;2023-01-15T00:49:45;13.10;75.50
27803;DHT22;15182;48.174;11.562;2023-01-15T00:52:17;13.10;75.60
27803;DHT22;15182;48.174;11.562;2023-01-15T00:54:48;13.10;75.90
27803;DHT22;15182;48.174;11.562;2023-01-15T00:57:21;13.10;76.10
27803;DHT22;15182;48.174;11.562;2023-01-15T00:59:52;13.10;76.40
27803;DHT22;15182;48.174;11.562;2023-01-15T01:02:23;13.10;76.60
27803;DHT22;15182;48.174;11.562;2023-01-15T01:04:56;13.10;76.70
27803;DHT22;15182;48.174;11.562;2023-01-15T01:07:27;13.00;76.80
27803;DHT22;15182;48.174;11.562;2023-01-15T01:09:58;13.00;76.80
27803;DHT22;15182;48.174;11.562;2023-01-15T01:12:29;13.00;76.80
27803;DHT22;15182;48.174;11.562;2023-01-15T01:15:02;13.00;76.90
27803;DHT22;15182;48.174;11.562;2023-01-15T01:17:38;12.90;77.00
27803;DHT22;15182;48.174;11.562;2023-01-15T01:22:49;12.90;77.00
27803;DHT22;15182;48.174;11.562;2023-01-15T01:25:20;12.90;78.10
27803;DHT22;15182;48.174;11.562;2023-01-15T01:27:52;12.90;77.10
27803;DHT22;15182;48.174;11.562;2023-01-15T01:30:23;12.90;77.20
27803;DHT22;15182;48.174;11.562;2023-01-15T01:32:54;12.90;77.50
27803;DHT22;15182;48.174;11.562;2023-01-15T01:35:27;12.90;77.70
27803;DHT22;15182;48.174;11.562;2023-01-15T01:37:58;12.90;77.70
27803;DHT22;15182;48.174;11.562;2023-01-15T01:40:30;12.90;77.60
27803;DHT22;15182;48.174;11.562;2023-01-15T01:43:01;12.90;78.00
27803;DHT22;15182;48.174;11.562;2023-01-15T01:45:34;12.90;77.80
27803;DHT22;15182;48.174;11.562;2023-01-15T01:48:08;12.90;78.10
27803;DHT22;15182;48.174;11.562;2023-01-15T01:50:42;12.90;78.20
27803;DHT22;15182;48.174;11.562;2023-01-15T01:53:16;12.90;78.50
27803;DHT22;15182;48.174;11.562;2023-01-15T01:55:50;12.80;78.60
27803;DHT22;15182;48.174;11.562;2023-01-15T01:58:24;12.80;78.80
27803;DHT22;15182;48.174;11.562;2023-01-15T02:00:57;12.80;79.00
27803;DHT22;15182;48.174;11.562;2023-01-15T02:03:33;12.80;79.20
27803;DHT22;15182;48.174;11.562;2023-01-15T02:06:09;12.80;79.40
27803;DHT22;15182;48.174;11.562;2023-01-15T02:08:41;12.80;79.50
27803;DHT22;15182;48.174;11.562;2023-01-15T02:11:16;12.70;79.40
27803;DHT22;15182;48.174;11.562;2023-01-15T02:13:54;12.70;79.80
27803;DHT22;15182;48.174;11.562;2023-01-15T02:16:32;12.70;79.50
27803;DHT22;15182;48.174;11.562;2023-01-15T02:19:16;12.70;79.40
27803;DHT22;15182;48.174;11.562;2023-01-15T02:21:58;12.70;79.50
27803;DHT22;15182;48.174;11.562;2023-01-15T02:24:47;12.70;79.60
27803;DHT22;15182;48.174;11.562;2023-01-15T02:27:26;12.70;79.40
27803;DHT22;15182;48.174;11.562;2023-01-15T02:30:02;12.70;79.40
27803;DHT22;15182;48.174;11.562;2023-01-15T02:32:51;12.70;79.50
27803;DHT22;15182;48.174;11.562;2023-01-15T02:35:29;12.70;79.60
27803;DHT22;15182;48.174;11.562;2023-01-15T02:38:07;12.70;79.60
27803;DHT22;15182;48.174;11.562;2023-01-15T02:40:42;12.70;79.70
27803;DHT22;15182;48.174;11.562;2023-01-15T02:43:18;12.70;79.80
27803;DHT22;15182;48.174;11.562;2023-01-15T02:45:55;12.70;79.80
27803;DHT22;15182;48.174;11.562;2023-01-15T02:48:31;12.70;79.80
27803;DHT22;15182;48.174;11.562;2023-01-15T02:51:10;12.70;80.00
27803;DHT22;15182;48.174;11.562;2023-01-15T02:53:47;12.70;80.00
27803;DHT22;15182;48.174;11.562;2023-01-15T02:56:23;12.70;80.10
27803;DHT22;15182;48.174;11.562;2023-01-15T02:59:02;12.70;80.30
27803;DHT22;15182;48.174;11.562;2023-01-15T03:01:39;12.70;80.30
27803;DHT22;15182;48.174;11.562;2023-01-15T03:04:16;12.70;80.50
27803;DHT22;15182;48.174;11.562;2023-01-15T03:06:58;12.70;80.60
27803;DHT22;15182;48.174;11.562;2023-01-15T03:09:35;12.70;80.70
27803;DHT22;15182;48.174;11.562;2023-01-15T03:12:12;12.70;80.70
27803;DHT22;15182;48.174;11.562;2023-01-15T03:14:51;12.70;81.00
27803;DHT22;15182;48.174;11.562;2023-01-15T03:17:26;12.80;81.00
27803;DHT22;15182;48.174;11.562;2023-01-15T03:20:07;12.80;81.00
27803;DHT22;15182;48.174;11.562;2023-01-15T03:22:43;12.70;81.30
27803;DHT22;15182;48.174;11.562;2023-01-15T03:25:20;12.70;81.40
27803;DHT22;15182;48.174;11.562;2023-01-15T03:27:59;12.80;81.70
27803;DHT22;15182;48.174;11.562;2023-01-15T03:30:34;12.80;81.80
27803;DHT22;15182;48.174;11.562;2023-01-15T03:33:05;12.80;82.10
27803;DHT22;15182;48.174;11.562;2023-01-15T03:35:49;12.70;82.10
27803;DHT22;15182;48.174;11.562;2023-01-15T03:38:33;12.80;82.30
27803;DHT22;15182;48.174;11.562;2023-01-15T03:41:14;12.70;82.10
27803;DHT22;15182;48.174;11.562;2023-01-15T03:43:55;12.80;82.40
27803;DHT22;15182;48.174;11.562;2023-01-15T03:46:40;12.70;82.40
27803;DHT22;15182;48.174;11.562;2023-01-15T03:49:20;12.80;82.80
27803;DHT22;15182;48.174;11.562;2023-01-15T03:52:00;12.80;82.50
27803;DHT22;15182;48.174;11.562;2023-01-15T03:54:42;12.80;82.50
27803;DHT22;15182;48.174;11.562;2023-01-15T03:57:25;12.70;82.40
27803;DHT22;15182;48.174;11.562;2023-01-15T04:00:00;12.70;82.60
27803;DHT22;15182;48.174;11.562;2023-01-15T04:02:46;12.70;82.50
27803;DHT22;15182;48.174;11.562;2023-01-15T04:05:19;12.70;82.50
27803;DHT22;15182;48.174;11.562;2023-01-15T04:07:54;12.70;82.60
27803;DHT22;15182;48.174;11.562;2023-01-15T04:10:30;12.80;82.80
27803;DHT22;15182;48.174;11.562;2023-01-15T04:13:03;12.80;82.70
27803;DHT22;15182;48.174;11.562;2023-01-15T04:15:36;12.80;82.80
27803;DHT22;15182;48.174;11.562;2023-01-15T04:18:09;12.80;82.80
27803;DHT22;15182;48.174;11.562;2023-01-15T04:20:40;12.80;82.80
27803;DHT22;15182;48.174;11.562;2023-01-15T04:23:14;12.80;82.80
27803;DHT22;15182;48.174;11.562;2023-01-15T04:25:46;12.80;82.80
27803;DHT22;15182;48.174;11.562;2023-01-15T04:28:17;12.80;82.80
27803;DHT22;15182;48.174;11.562;2023-01-15T04:30:48;12.90;82.90
27803;DHT22;15182;48.174;11.562;2023-01-15T04:33:21;12.80;82.80
27803;DHT22;15182;48.174;11.562;2023-01-15T04:35:52;12.90;82.90
27803;DHT22;15182;48.174;11.562;2023-01-15T04:38:26;12.90;82.90
27803;DHT22;15182;48.174;11.562;2023-01-15T04:41:01;12.90;82.80
27803;DHT22;15182;48.174;11.562;2023-01-15T04:43:51;12.90;82.80
27803;DHT22;15182;48.174;11.562;2023-01-15T04:46:37;12.90;82.80
27803;DHT22;15182;48.174;11.562;2023-01-15T04:49:13;12.90;82.80
27803;DHT22;15182;48.174;11.562;2023-01-15T04:51:46;12.90;82.80
27803;DHT22;15182;48.174;11.562;2023-01-15T04:54:18;12.90;82.80
27803;DHT22;15182;48.174;11.562;2023-01-15T04:56:52;12.90;82.80
27803;DHT22;15182;48.174;11.562;2023-01-15T04:59:26;12.90;82.80
27803;DHT22;15182;48.174;11.562;2023-01-15T05:01:57;13.00;82.80
27803;DHT22;15182;48.174;11.562;2023-01-15T05:04:30;12.90;82.70
27803;DHT22;15182;48.174;11.562;2023-01-15T05:07:02;13.00;82.80
27803;DHT22;15182;48.174;11.562;2023-01-15T05:09:33;13.00;82.70
27803;DHT22;15182;48.174;11.562;2023-01-15T05:12:06;13.00;82.70
27803;DHT22;15182;48.174;11.562;2023-01-15T05:14:38;13.00;82.60
27803;DHT22;15182;48.174;11.562;2023-01-15T05:17:09;13.00;82.60
27803;DHT22;15182;48.174;11.562;2023-01-15T05:19:42;13.00;82.60
27803;DHT22;15182;48.174;11.562;2023-01-15T05:22:13;13.00;82.60
27803;DHT22;15182;48.174;11.562;2023-01-15T05:24:44;13.00;82.60
27803;DHT22;15182;48.174;11.562;2023-01-15T05:27:15;13.00;82.60
27803;DHT22;15182;48.174;11.562;2023-01-15T05:29:46;13.00;82.70
27803;DHT22;15182;48.174;11.562;2023-01-15T05:32:18;13.00;82.70
27803;DHT22;15182;48.174;11.562;2023-01-15T05:34:50;13.00;82.70
27803;DHT22;15182;48.174;11.562;2023-01-15T05:37:22;13.00;82.70
27803;DHT22;15182;48.174;11.562;2023-01-15T05:39:54;13.10;82.80
27803;DHT22;15182;48.174;11.562;2023-01-15T05:42:25;13.10;82.90
27803;DHT22;15182;48.174;11.562;2023-01-15T05:44:56;13.10;82.90
27803;DHT22;15182;48.174;11.562;2023-01-15T05:47:27;13.10;83.00
27803;DHT22;15182;48.174;11.562;2023-01-15T05:50:00;13.10;83.20
27803;DHT22;15182;48.174;11.562;2023-01-15T05:52:31;13.10;84.20
27803;DHT22;15182;48.174;11.562;2023-01-15T05:55:02;13.10;83.70
27803;DHT22;15182;48.174;11.562;2023-01-15T05:57:34;13.10;84.10
27803;DHT22;15182;48.174;11.562;2023-01-15T06:00:07;13.10;84.50
27803;DHT22;15182;48.174;11.562;2023-01-15T06:02:43;13.20;85.20
27803;DHT22;15182;48.174;11.562;2023-01-15T06:05:18;13.30;85.60
27803;DHT22;15182;48.174;11.562;2023-01-15T06:07:50;13.30;85.90
27803;DHT22;15182;48.174;11.562;2023-01-15T06:10:21;13.40;86.00
27803;DHT22;15182;48.174;11.562;2023-01-15T06:12:52;13.50;86.30
27803;DHT22;15182;48.174;11.562;2023-01-15T06:15:23;13.50;86.30
27803;DHT22;15182;48.174;11.562;2023-01-15T06:17:55;13.70;86.60
27803;DHT22;15182;48.174;11.562;2023-01-15T06:20:27;13.80;86.70
27803;DHT22;15182;48.174;11.562;2023-01-15T06:22:59;13.80;86.70
27803;DHT22;15182;48.174;11.562;2023-01-15T06:25:31;13.90;86.60
27803;DHT22;15182;48.174;11.562;2023-01-15T06:28:03;14.00;86.60
27803;DHT22;15182;48.174;11.562;2023-01-15T06:30:36;14.00;86.50
27803;DHT22;15182;48.174;11.562;2023-01-15T06:33:09;14.10;86.60
27803;DHT22;15182;48.174;11.562;2023-01-15T06:35:41;14.10;86.80
27803;DHT22;15182;48.174;11.562;2023-01-15T06:38:13;14.20;86.90
27803;DHT22;15182;48.174;11.562;2023-01-15T06:40:44;14.30;86.80
27803;DHT22;15182;48.174;11.562;2023-01-15T06:43:15;14.30;86.80
27803;DHT22;15182;48.174;11.562;2023-01-15T06:46:04;14.40;86.80
27803;DHT22;15182;48.174;11.562;2023-01-15T06:48:53;14.40;86.90
27803;DHT22;15182;48.174;11.562;2023-01-15T06:51:25;14.50;87.00
27803;DHT22;15182;48.174;11.562;2023-01-15T06:53:57;14.50;87.10
27803;DHT22;15182;48.174;11.562;2023-01-15T06:56:28;14.50;87.10
27803;DHT22;15182;48.174;11.562;2023-01-15T06:58:59;14.60;87.10
27803;DHT22;15182;48.174;11.562;2023-01-15T07:01:30;14.60;87.10
27803;DHT22;15182;48.174;11.562;2023-01-15T07:04:01;14.60;87.30
27803;DHT22;15182;48.174;11.562;2023-01-15T07:06:34;14.60;87.30
27803;DHT22;15182;48.174;11.562;2023-01-15T07:09:06;14.70;87.60
27803;DHT22;15182;48.174;11.562;2023-01-15T07:11:37;14.70;87.70
27803;DHT22;15182;48.174;11.562;2023-01-15T07:14:17;14.70;87.70
27803;DHT22;15182;48.174;11.562;2023-01-15T07:16:50;14.70;87.70
27803;DHT22;15182;48.174;11.562;2023-01-15T07:19:21;14.80;87.80
27803;DHT22;15182;48.174;11.562;2023-01-15T07:21:54;14.80;87.80
27803;DHT22;15182;48.174;11.562;2023-01-15T07:24:25;14.80;88.00
27803;DHT22;15182;48.174;11.562;2023-01-15T07:26:57;14.90;88.00
27803;DHT22;15182;48.174;11.562;2023-01-15T07:29:28;14.90;88.10
27803;DHT22;15182;48.174;11.562;2023-01-15T07:31:59;14.90;88.10
27803;DHT22;15182;48.174;11.562;2023-01-15T07:34:30;14.90;88.10
27803;DHT22;15182;48.174;11.562;2023-01-15T07:37:03;14.90;88.20
27803;DHT22;15182;48.174;11.562;2023-01-15T07:39:34;14.90;88.30
27803;DHT22;15182;48.174;11.562;2023-01-15T07:42:08;14.90;88.30
27803;DHT22;15182;48.174;11.562;2023-01-15T07:44:57;14.90;88.30
27803;DHT22;15182;48.174;11.562;2023-01-15T07:47:46;14.90;88.30
27803;DHT22;15182;48.174;11.562;2023-01-15T07:50:35;14.90;88.30
27803;DHT22;15182;48.174;11.562;2023-01-15T07:53:08;14.90;88.30
27803;DHT22;15182;48.174;11.562;2023-01-15T07:55:39;14.90;88.30
27803;DHT22;15182;48.174;11.562;2023-01-15T07:58:11;14.90;88.30
27803;DHT22;15182;48.174;11.562;2023-01-15T08:00:42;14.90;88.30
27803;DHT22;15182;48.174;11.562;2023-01-15T08:03:13;15.00;88.40
27803;DHT22;15182;48.174;11.562;2023-01-15T08:05:45;15.00;88.30
27803;DHT22;15182;48.174;11.562;2023-01-15T08:08:18;15.00;88.30
27803;DHT22;15182;48.174;11.562;2023-01-15T08:10:49;15.00;88.30
27803;DHT22;15182;48.174;11.562;2023-01-15T08:13:38;15.00;88.30
27803;DHT22;15182;48.174;11.562;2023-01-15T08:16:27;15.00;88.20
27803;DHT22;15182;48.174;11.562;2023-01-15T08:18:59;15.00;88.20
27803;DHT22;15182;48.174;11.562;2023-01-15T08:21:30;15.10;88.40
27803;DHT22;15182;48.174;11.562;2023-01-15T08:24:03;15.10;88.40
27803;DHT22;15182;48.174;11.562;2023-01-15T08:26:35;15.10;88.40
27803;DHT22;15182;48.174;11.562;2023-01-15T08:29:06;15.10;88.40
27803;DHT22;15182;48.174;11.562;2023-01-15T08:31:38;15.10;88.40
27803;DHT22;15182;48.174;11.562;2023-01-15T08:34:10;15.10;88.40
27803;DHT22;15182;48.174;11.562;2023-01-15T08:36:41;15.10;88.40
27803;DHT22;15182;48.174;11.562;2023-01-15T08:39:14;15.10;88.50
27803;DHT22;15182;48.174;11.562;2023-01-15T08:41:45;15.10;88.50
27803;DHT22;15182;48.174;11.562;2023-01-15T08:44:16;15.20;88.60
27803;DHT22;15182;48.174;11.562;2023-01-15T08:46:49;15.20;88.60
27803;DHT22;15182;48.174;11.562;2023-01-15T08:49:21;15.20;88.50
27803;DHT22;15182;48.174;11.562;2023-01-15T08:51:52;15.20;88.50
27803;DHT22;15182;48.174;11.562;2023-01-15T08:54:25;15.20;88.30
27803;DHT22;15182;48.174;11.562;2023-01-15T08:56:57;15.20;89.20
27803;DHT22;15182;48.174;11.562;2023-01-15T08:59:29;15.20;88.20
27803;DHT22;15182;48.174;11.562;2023-01-15T09:02:01;15.30;89.10
27803;DHT22;15182;48.174;11.562;2023-01-15T09:04:32;15.30;88.10
27803;DHT22;15182;48.174;11.562;2023-01-15T09:07:04;15.30;88.00
27803;DHT22;15182;48.174;11.562;2023-01-15T09:09:36;15.30;87.90
27803;DHT22;15182;48.174;11.562;2023-01-15T09:12:08;15.40;87.80
27803;DHT22;15182;48.174;11.562;2023-01-15T09:14:39;15.40;87.70
27803;DHT22;15182;48.174;11.562;2023-01-15T09:17:10;15.40;87.50
27803;DHT22;15182;48.174;11.562;2023-01-15T09:19:41;15.40;87.40
27803;DHT22;15182;48.174;11.562;2023-01-15T09:22:13;15.50;87.30
27803;DHT22;15182;48.174;11.562;2023-01-15T09:24:45;15.50;87.00
27803;DHT22;15182;48.174;11.562;2023-01-15T09:27:17;15.50;86.80
27803;DHT22;15182;48.174;11.562;2023-01-15T09:32:24;15.60;86.50
27803;DHT22;15182;48.174;11.562;2023-01-15T09:34:55;15.70;86.30
27803;DHT22;15182;48.174;11.562;2023-01-15T09:37:26;15.70;86.10
27803;DHT22;15182;48.174;11.562;2023-01-15T09:39:59;15.70;85.90
27803;DHT22;15182;48.174;11.562;2023-01-15T09:42:37;15.80;85.70
27803;DHT22;15182;48.174;11.562;2023-01-15T09:45:19;15.90;85.40
27803;DHT22;15182;48.174;11.562;2023-01-15T09:48:04;15.90;85.40
27803;DHT22;15182;48.174;11.562;2023-01-15T09:50:46;16.00;84.80
27803;DHT22;15182;48.174;11.562;2023-01-15T09:56:30;16.10;84.60
27803;DHT22;15182;48.174;11.562;2023-01-15T09:59:11;16.20;84.50
27803;DHT22;15182;48.174;11.562;2023-01-15T10:01:48;16.20;84.40
27803;DHT22;15182;48.174;11.562;2023-01-15T10:04:30;16.20;84.20
27803;DHT22;15182;48.174;11.562;2023-01-15T10:07:10;16.20;83.80
27803;DHT22;15182;48.174;11.562;2023-01-15T10:09:46;16.30;84.90
27803;DHT22;15182;48.174;11.562;2023-01-15T10:12:27;16.30;85.30
27803;DHT22;15182;48.174;11.562;2023-01-15T10:15:16;16.20;85.50
27803;DHT22;15182;48.174;11.562;2023-01-15T10:17:53;16.10;85.30
27803;DHT22;15182;48.174;11.562;2023-01-15T10:20:47;16.00;84.80
27803;DHT22;15182;48.174;11.562;2023-01-15T10:23:34;15.80;84.30
27803;DHT22;15182;48.174;11.562;2023-01-15T10:26:16;15.60;84.10
27803;DHT22;15182;48.174;11.562;2023-01-15T10:28:58;15.40;84.00
27803;DHT22;15182;48.174;11.562;2023-01-15T10:31:44;15.10;84.20
27803;DHT22;15182;48.174;11.562;2023-01-15T10:34:42;14.90;84.40
27803;DHT22;15182;48.174;11.562;2023-01-15T10:37:35;14.60;84.70
27803;DHT22;15182;48.174;11.562;2023-01-15T10:40:17;14.40;85.00
27803;DHT22;15182;48.174;11.562;2023-01-15T10:42:58;14.20;85.30
27803;DHT22;15182;48.174;11.562;2023-01-15T10:45:38;14.10;85.40
27803;DHT22;15182;48.174;11.562;2023-01-15T10:48:15;13.90;85.60
27803;DHT22;15182;48.174;11.562;2023-01-15T10:50:50;13.70;85.90
27803;DHT22;15182;48.174;11.562;2023-01-15T10:53:27;13.60;85.90
27803;DHT22;15182;48.174;11.562;2023-01-15T10:56:06;13.40;86.10
27803;DHT22;15182;48.174;11.562;2023-01-15T10:58:44;13.30;86.20
27803;DHT22;15182;48.174;11.562;2023-01-15T11:01:19;13.10;86.40
27803;DHT22;15182;48.174;11.562;2023-01-15T11:03:52;13.00;86.70
27803;DHT22;15182;48.174;11.562;2023-01-15T11:06:24;12.90;86.60
27803;DHT22;15182;48.174;11.562;2023-01-15T11:08:59;12.80;86.70
27803;DHT22;15182;48.174;11.562;2023-01-15T11:11:34;12.70;87.00
27803;DHT22;15182;48.174;11.562;2023-01-15T11:14:32;12.60;87.30
27803;DHT22;15182;48.174;11.562;2023-01-15T11:17:25;12.50;87.50
27803;DHT22;15182;48.174;11.562;2023-01-15T11:20:24;12.50;87.80
27803;DHT22;15182;48.174;11.562;2023-01-15T11:23:07;12.40;88.20
27803;DHT22;15182;48.174;11.562;2023-01-15T11:25:46;12.40;88.60
27803;DHT22;15182;48.174;11.562;2023-01-15T11:28:29;12.30;89.40
27803;DHT22;15182;48.174;11.562;2023-01-15T11:31:03;12.30;89.00
27803;DHT22;15182;48.174;11.562;2023-01-15T11:33:37;12.30;88.90
27803;DHT22;15182;48.174;11.562;2023-01-15T11:36:21;12.30;89.20
27803;DHT22;15182;48.174;11.562;2023-01-15T11:38:54;12.30;89.60
27803;DHT22;15182;48.174;11.562;2023-01-15T11:41:31;12.20;89.50
27803;DHT22;15182;48.174;11.562;2023-01-15T11:44:19;12.10;90.00
27803;DHT22;15182;48.174;11.562;2023-01-15T11:47:12;12.10;90.00
27803;DHT22;15182;48.174;11.562;2023-01-15T11:50:18;12.00;90.20
27803;DHT22;15182;48.174;11.562;2023-01-15T11:53:13;12.00;90.50
27803;DHT22;15182;48.174;11.562;2023-01-15T11:55:56;11.90;90.30
27803;DHT22;15182;48.174;11.562;2023-01-15T11:58:30;11.90;90.50
27803;DHT22;15182;48.174;11.562;2023-01-15T12:01:06;11.80;90.40
27803;DHT22;15182;48.174;11.562;2023-01-15T12:03:38;11.80;90.50
27803;DHT22;15182;48.174;11.562;2023-01-15T12:06:14;11.80;90.60
27803;DHT22;15182;48.174;11.562;2023-01-15T12:08:51;11.70;90.60
27803;DHT22;15182;48.174;11.562;2023-01-15T12:11:30;11.70;90.60
27803;DHT22;15182;48.174;11.562;2023-01-15T12:14:38;11.70;90.80
27803;DHT22;15182;48.174;11.562;2023-01-15T12:17:23;11.60;91.00
27803;DHT22;15182;48.174;11.562;2023-01-15T12:20:05;11.60;90.90
27803;DHT22;15182;48.174;11.562;2023-01-15T12:22:54;11.50;90.90
27803;DHT22;15182;48.174;11.562;2023-01-15T12:25:46;11.50;91.10
27803;DHT22;15182;48.174;11.562;2023-01-15T12:28:27;11.40;91.10
27803;DHT22;15182;48.174;11.562;2023-01-15T12:31:04;11.40;91.10
27803;DHT22;15182;48.174;11.562;2023-01-15T12:33:40;11.30;91.20
27803;DHT22;15182;48.174;11.562;2023-01-15T12:36:17;11.30;91.30
27803;DHT22;15182;48.174;11.562;2023-01-15T12:38:54;11.30;91.50
27803;DHT22;15182;48.174;11.562;2023-01-15T12:41:31;11.20;91.50
27803;DHT22;15182;48.174;11.562;2023-01-15T12:44:29;11.20;91.60
27803;DHT22;15182;48.174;11.562;2023-01-15T12:47:21;11.20;91.70
27803;DHT22;15182;48.174;11.562;2023-01-15T12:49:59;11.20;91.50
27803;DHT22;15182;48.174;11.562;2023-01-15T12:52:39;11.20;91.60
27803;DHT22;15182;48.174;11.562;2023-01-15T12:55:18;11.10;91.60
27803;DHT22;15182;48.174;11.562;2023-01-15T12:57:52;11.10;91.80
27803;DHT22;15182;48.174;11.562;2023-01-15T13:00:31;11.10;91.80
27803;DHT22;15182;48.174;11.562;2023-01-15T13:03:15;11.10;91.90
27803;DHT22;15182;48.174;11.562;2023-01-15T13:05:52;11.10;92.20
27803;DHT22;15182;48.174;11.562;2023-01-15T13:08:32;11.10;92.40
27803;DHT22;15182;48.174;11.562;2023-01-15T13:11:08;11.10;92.10
27803;DHT22;15182;48.174;11.562;2023-01-15T13:13:42;11.10;92.10
27803;DHT22;15182;48.174;11.562;2023-01-15T13:16:28;11.10;92.10
27803;DHT22;15182;48.174;11.562;2023-01-15T13:19:15;11.10;92.30
27803;DHT22;15182;48.174;11.562;2023-01-15T13:21:51;11.10;92.50
27803;DHT22;15182;48.174;11.562;2023-01-15T13:27:46;11.10;92.70
27803;DHT22;15182;48.174;11.562;2023-01-15T13:30:39;11.00;92.70
27803;DHT22;15182;48.174;11.562;2023-01-15T13:33:23;11.00;92.80
27803;DHT22;15182;48.174;11.562;2023-01-15T13:36:05;11.00;92.60
27803;DHT22;15182;48.174;11.562;2023-01-15T13:38:42;11.00;92.20
27803;DHT22;15182;48.174;11.562;2023-01-15T13:41:19;10.90;92.00
27803;DHT22;15182;48.174;11.562;2023-01-15T13:44:15;10.90;92.00
27803;DHT22;15182;48.174;11.562;2023-01-15T13:46:58;10.80;92.10
27803;DHT22;15182;48.174;11.562;2023-01-15T13:49:34;10.80;92.10
27803;DHT22;15182;48.174;11.562;2023-01-15T13:52:18;10.80;92.10
27803;DHT22;15182;48.174;11.562;2023-01-15T13:54:50;10.80;92.00
27803;DHT22;15182;48.174;11.562;2023-01-15T13:57:25;10.80;91.90
27803;DHT22;15182;48.174;11.562;2023-01-15T14:00:06;10.80;91.80
27803;DHT22;15182;48.174;11.562;2023-01-15T14:02:56;10.70;91.60
27803;DHT22;15182;48.174;11.562;2023-01-15T14:05:32;10.70;91.40
27803;DHT22;15182;48.174;11.562;2023-01-15T14:08:15;10.70;91.40
27803;DHT22;15182;48.174;11.562;2023-01-15T14:10:52;10.70;91.40
27803;DHT22;15182;48.174;11.562;2023-01-15T14:13:43;10.60;91.20
27803;DHT22;15182;48.174;11.562;2023-01-15T14:16:34;10.60;91.30
27803;DHT22;15182;48.174;11.562;2023-01-15T14:19:30;10.60;91.30
27803;DHT22;15182;48.174;11.562;2023-01-15T14:22:34;10.60;91.30
27803;DHT22;15182;48.174;11.562;2023-01-15T14:25:28;10.60;91.30
27803;DHT22;15182;48.174;11.562;2023-01-15T14:28:17;10.60;91.30
27803;DHT22;15182;48.174;11.562;2023-01-15T14:31:13;10.50;91.20
27803;DHT22;15182;48.174;11.562;2023-01-15T14:34:03;10.50;91.30
27803;DHT22;15182;48.174;11.562;2023-01-15T14:36:45;10.50;91.30
27803;DHT22;15182;48.174;11.562;2023-01-15T14:39:33;10.50;91.30
27803;DHT22;15182;48.174;11.562;2023-01-15T14:42:09;10.50;91.30
27803;DHT22;15182;48.174;11.562;2023-01-15T14:45:03;10.40;91.30
27803;DHT22;15182;48.174;11.562;2023-01-15T14:47:47;10.40;91.40
27803;DHT22;15182;48.174;11.562;2023-01-15T14:50:26;10.40;91.60
27803;DHT22;15182;48.174;11.562;2023-01-15T14:53:12;10.30;91.70
27803;DHT22;15182;48.174;11.562;2023-01-15T14:55:49;10.40;91.80
27803;DHT22;15182;48.174;11.562;2023-01-15T14:58:33;10.30;91.80
27803;DHT22;15182;48.174;11.562;2023-01-15T15:01:28;10.30;91.90
27803;DHT22;15182;48.174;11.562;2023-01-15T15:06:56;10.30;92.00
27803;DHT22;15182;48.174;11.562;2023-01-15T15:09:30;10.20;92.00
27803;DHT22;15182;48.174;11.562;2023-01-15T15:12:16;10.10;92.00
27803;DHT22;15182;48.174;11.562;2023-01-15T15:14:57;10.10;91.90
27803;DHT22;15182;48.174;11.562;2023-01-15T15:17:34;10.00;91.90
27803;DHT22;15182;48.174;11.562;2023-01-15T15:20:28;10.00;92.00
27803;DHT22;15182;48.174;11.562;2023-01-15T15:23:14;9.80;92.20
27803;DHT22;15182;48.174;11.562;2023-01-15T15:25:51;9.80;92.10
27803;DHT22;15182;48.174;11.562;2023-01-15T15:28:25;9.70;92.20
27803;DHT22;15182;48.174;11.562;2023-01-15T15:30:58;9.60;92.20
27803;DHT22;15182;48.174;11.562;2023-01-15T15:33:38;9.50;92.30
27803;DHT22;15182;48.174;11.562;2023-01-15T15:36:11;9.50;92.60
27803;DHT22;15182;48.174;11.562;2023-01-15T15:38:53;9.40;92.50
27803;DHT22;15182;48.174;11.562;2023-01-15T15:41:28;9.40;92.80
27803;DHT22;15182;48.174;11.562;2023-01-15T15:44:21;9.40;92.80
27803;DHT22;15182;48.174;11.562;2023-01-15T15:47:17;9.40;92.80
27803;DHT22;15182;48.174;11.562;2023-01-15T15:50:17;9.40;93.10
27803;DHT22;15182;48.174;11.562;2023-01-15T15:52:51;9.40;92.90
27803;DHT22;15182;48.174;11.562;2023-01-15T15:55:23;9.40;93.40
27803;DHT22;15182;48.174;11.562;2023-01-15T15:57:59;9.40;93.10
27803;DHT22;15182;48.174;11.562;2023-01-15T16:00:34;9.40;93.30
27803;DHT22;15182;48.174;11.562;2023-01-15T16:03:20;9.40;93.20
27803;DHT22;15182;48.174;11.562;2023-01-15T16:05:55;9.40;93.40
27803;DHT22;15182;48.174;11.562;2023-01-15T16:08:30;9.40;93.30
27803;DHT22;15182;48.174;11.562;2023-01-15T16:11:05;9.40;93.30
27803;DHT22;15182;48.174;11.562;2023-01-15T16:13:41;9.40;93.40
27803;DHT22;15182;48.174;11.562;2023-01-15T16:16:15;9.40;93.40
27803;DHT22;15182;48.174;11.562;2023-01-15T16:18:49;9.50;93.70
27803;DHT22;15182;48.174;11.562;2023-01-15T16:21:25;9.50;93.40
27803;DHT22;15182;48.174;11.562;2023-01-15T16:24:00;9.50;93.50
27803;DHT22;15182;48.174;11.562;2023-01-15T16:26:36;9.50;93.30
27803;DHT22;15182;48.174;11.562;2023-01-15T16:29:17;9.50;93.20
27803;DHT22;15182;48.174;11.562;2023-01-15T16:31:51;9.50;93.10
27803;DHT22;15182;48.174;11.562;2023-01-15T16:34:25;9.50;92.80